Maersk Memphis — WMMK — position and weather

sailwx.info

Track history (hours):
 
Tides and Currents Weather Stations Pressure Air Temp Water Temp Dewpoint Dewpoint Depression Visibility Wind Speed Wind Dir Waves Ship Positions

Maersk Memphis

Owner: MAERSK LINE, LIMITED, NORFOLK, VA. More information available from US FCC via Universal Licensing System and Coast Guard Vessel Documentation Center.

Last reported at 2018-Feb-24 23:30 UTC. Time now 2018-Feb-24 23:41 UTC.
Position N 37°37' W 027°51'.

Length 299 m; draft 13 m.

Type: Cargo ship. MMSI: 366337000.

Date/timePositionNaut miles runAvg speedWind from/ knotsBaromVisibWave heightAir tempDewpointWater temp
2018-Feb-24 23:30N 37°37' W 027°51'1121.2
2018-Feb-24 23:00N 37°37' W 028°04'1021.0
2018-Feb-24 22:30N 37°38' W 028°17'1020.9
2018-Feb-24 22:00N 37°38' W 028°31'1020.8
2018-Feb-24 21:30N 37°39' W 028°44'1121.2
2018-Feb-24 21:00N 37°39' W 028°57'1020.8
2018-Feb-24 20:30N 37°40' W 029°10'1121.3
2018-Feb-24 20:00N 37°40' W 029°24'1121.1
2018-Feb-24 19:30N 37°41' W 029°37'1121.4
2018-Feb-24 19:00N 37°42' W 029°50'1121.1
2018-Feb-24 18:31N 37°42' W 030°04'1121.0
2018-Feb-24 18:00N 37°43' W 030°17'12420.6
2018-Feb-24 12:00N 37°48' W 032°54'   320 / 401000.210.8 12.0 7.918.0
2018-Feb-20 13:51N 36°49' W 075°46'4 9.2
2018-Feb-20 13:22N 36°51' W 075°50'3 9.2
2018-Feb-20 13:00N 36°54' W 075°54'5 9.2
2018-Feb-20 12:28N 36°56' W 075°59'510.5
2018-Feb-20 12:00N 36°58' W 076°04'712.8
2018-Feb-20 11:29N 36°60' W 076°12'611.6
2018-Feb-20 10:57N 36°58' W 076°20'4 8.0
2018-Feb-20 10:30N 36°55' W 076°20'2 4.5
2018-Feb-20 10:00N 36°53' W 076°21'0 0.6
2018-Feb-20 09:30N 36°52' W 076°21'0 0.0
2018-Feb-20 08:58N 36°52' W 076°21'0 0.0
2018-Feb-20 08:28N 36°52' W 076°21'0 0.0
2018-Feb-20 07:58N 36°52' W 076°21'0 0.0
2018-Feb-20 07:28N 36°52' W 076°21'0 0.0
2018-Feb-20 06:58N 36°52' W 076°21'0 0.0
2018-Feb-20 06:28N 36°52' W 076°21'0 0.0
2018-Feb-20 05:58N 36°52' W 076°21'0 0.0
2018-Feb-20 05:28N 36°52' W 076°21'0 0.0
2018-Feb-20 04:58N 36°52' W 076°21'0 0.0
2018-Feb-20 04:28N 36°52' W 076°21'0 0.0
2018-Feb-20 03:58N 36°52' W 076°21'0 0.0
2018-Feb-20 03:28N 36°52' W 076°21'0 0.0
2018-Feb-20 02:58N 36°52' W 076°21'0 0.0
2018-Feb-20 02:25N 36°52' W 076°21'0 0.0
2018-Feb-20 01:58N 36°52' W 076°21'0 0.0
2018-Feb-20 01:28N 36°52' W 076°21'0 0.0
2018-Feb-20 00:58N 36°52' W 076°21'0 0.0
2018-Feb-20 00:28N 36°52' W 076°21'0 0.0
2018-Feb-19 23:55N 36°52' W 076°21'0 0.0
2018-Feb-19 23:28N 36°52' W 076°21'0 0.0
2018-Feb-19 22:58N 36°52' W 076°21'0 0.0
2018-Feb-19 22:28N 36°52' W 076°21'0 0.0
2018-Feb-19 21:58N 36°52' W 076°21'0 0.0
2018-Feb-19 21:28N 36°52' W 076°21'0 0.0
2018-Feb-19 20:58N 36°52' W 076°21'0 0.0
2018-Feb-19 20:28N 36°52' W 076°21'0 0.0
2018-Feb-19 19:58N 36°52' W 076°21'0 0.0
2018-Feb-19 19:28N 36°52' W 076°21'0 0.0
2018-Feb-19 18:58N 36°52' W 076°21'0 0.0
2018-Feb-19 18:28N 36°52' W 076°21'0 0.0
2018-Feb-19 17:58N 36°52' W 076°21'0 0.0
2018-Feb-19 17:28N 36°52' W 076°21'0 0.0
2018-Feb-19 16:58N 36°52' W 076°21'0 0.5
2018-Feb-19 16:31N 36°53' W 076°21'2 4.6
2018-Feb-19 16:01N 36°55' W 076°20'5 8.9
2018-Feb-19 15:30N 36°59' W 076°19'713.4
2018-Feb-19 15:00N 36°59' W 076°11'714.6
2018-Feb-19 14:30N 36°57' W 076°02'5 9.7
2018-Feb-19 14:00N 36°56' W 075°56'3 6.4
2018-Feb-19 13:30N 36°54' W 075°54'2 4.9
2018-Feb-19 13:00N 36°52' W 075°51'3 5.5
2018-Feb-19 12:30N 36°50' W 075°49'2 0.1
2018-Feb-18 19:37N 36°48' W 075°49'0 0.0
2018-Feb-18 17:58N 36°48' W 075°49'0 0.2
2018-Feb-18 17:25N 36°48' W 075°49'3 6.3
2018-Feb-18 17:00N 36°47' W 075°46'5 9.3
2018-Feb-18 16:30N 36°47' W 075°40'19613.7
2018-Feb-18 02:13N 39°42' W 073°49'3512.3
2018-Feb-17 23:22N 40°17' W 073°49'3 9.3
2018-Feb-17 23:00N 40°21' W 073°49'5 9.1
2018-Feb-17 22:28N 40°25' W 073°50'4 8.8
2018-Feb-17 22:00N 40°29' W 073°53'510.8
2018-Feb-17 21:30N 40°31' W 073°60'714.5
2018-Feb-17 21:00N 40°38' W 074°03'3 6.2
2018-Feb-17 20:31N 40°39' W 074°07'2 3.0
2018-Feb-17 20:00N 40°40' W 074°09'0 0.2
2018-Feb-17 19:28N 40°40' W 074°09'0 0.0
2018-Feb-17 18:58N 40°40' W 074°09'0 0.0
2018-Feb-17 18:28N 40°40' W 074°09'0 0.0
2018-Feb-17 17:58N 40°40' W 074°09'0 0.0
2018-Feb-17 17:28N 40°40' W 074°09'0 0.0
2018-Feb-17 16:58N 40°40' W 074°09'0 0.0
2018-Feb-17 16:28N 40°40' W 074°09'0 0.0
2018-Feb-17 15:58N 40°40' W 074°09'0 0.0
2018-Feb-17 15:28N 40°40' W 074°09'0 0.0
2018-Feb-17 14:58N 40°40' W 074°09'0 0.0
2018-Feb-17 14:28N 40°40' W 074°09'0 0.0
2018-Feb-17 13:58N 40°40' W 074°09'0 0.0
2018-Feb-17 13:25N 40°40' W 074°09'0 0.0
2018-Feb-17 12:58N 40°40' W 074°09'0 0.0
2018-Feb-17 12:28N 40°40' W 074°09'0 0.0
2018-Feb-17 11:58N 40°40' W 074°09'0 0.0
2018-Feb-17 11:28N 40°40' W 074°09'0 0.0
2018-Feb-17 10:58N 40°40' W 074°09'0 0.0
2018-Feb-17 10:28N 40°40' W 074°09'0 0.0
2018-Feb-17 09:58N 40°40' W 074°09'0 0.0
2018-Feb-17 09:28N 40°40' W 074°09'0 0.0
2018-Feb-17 08:58N 40°40' W 074°09'0 0.0
2018-Feb-17 08:28N 40°40' W 074°09'0 0.0
2018-Feb-17 07:58N 40°40' W 074°09'0 0.0
2018-Feb-17 07:28N 40°40' W 074°09'0 0.0
2018-Feb-17 06:58N 40°40' W 074°09'0 0.0
2018-Feb-17 06:28N 40°40' W 074°09'0 0.0
2018-Feb-17 05:58N 40°40' W 074°09'0 0.0
2018-Feb-17 05:28N 40°40' W 074°09'0 0.0
2018-Feb-17 04:58N 40°40' W 074°09'0 0.0
2018-Feb-17 04:28N 40°40' W 074°09'0 0.0
2018-Feb-17 03:58N 40°40' W 074°09'0 0.0
2018-Feb-17 03:28N 40°40' W 074°09'0 0.0
2018-Feb-17 02:58N 40°40' W 074°09'0 0.0
2018-Feb-17 02:28N 40°40' W 074°09'0 0.0
2018-Feb-17 01:58N 40°40' W 074°09'0 0.0
2018-Feb-17 01:28N 40°40' W 074°09'0 0.0
2018-Feb-17 00:58N 40°40' W 074°09'0 0.0
2018-Feb-17 00:28N 40°40' W 074°09'0 0.0
2018-Feb-16 23:58N 40°40' W 074°09'0 0.0
2018-Feb-16 23:28N 40°40' W 074°09'0 0.0
2018-Feb-16 22:58N 40°40' W 074°09'0 0.0
2018-Feb-16 22:28N 40°40' W 074°09'0 0.0
2018-Feb-16 21:58N 40°40' W 074°09'0 0.0
2018-Feb-16 21:28N 40°40' W 074°09'0 0.0
2018-Feb-16 20:58N 40°40' W 074°09'0 0.0
2018-Feb-16 20:28N 40°40' W 074°09'0 0.0
2018-Feb-16 19:58N 40°40' W 074°09'0 0.0
2018-Feb-16 19:28N 40°40' W 074°09'0 0.0
2018-Feb-16 18:58N 40°40' W 074°09'0 0.0
2018-Feb-16 18:28N 40°40' W 074°09'0 0.0
2018-Feb-16 17:58N 40°40' W 074°09'0 0.0
2018-Feb-16 17:28N 40°40' W 074°09'0 0.0
2018-Feb-16 16:58N 40°40' W 074°09'0 0.0
2018-Feb-16 16:25N 40°40' W 074°09'0 0.0
2018-Feb-16 15:58N 40°40' W 074°09'0 0.0
2018-Feb-16 15:28N 40°40' W 074°09'0 0.0
2018-Feb-16 14:58N 40°40' W 074°09'0 0.0
2018-Feb-16 14:28N 40°40' W 074°09'0 0.0
2018-Feb-16 13:58N 40°40' W 074°09'0 0.0
2018-Feb-16 13:28N 40°40' W 074°09'0 0.0
2018-Feb-16 12:58N 40°40' W 074°09'0 0.0
2018-Feb-16 12:28N 40°40' W 074°09'0 0.0
2018-Feb-16 11:58N 40°40' W 074°09'0 0.0
2018-Feb-16 11:28N 40°40' W 074°09'0 0.0
2018-Feb-16 11:01N 40°40' W 074°09'1 2.2
2018-Feb-16 10:30N 40°39' W 074°08'3 6.2
2018-Feb-16 10:00N 40°39' W 074°04'4 8.5
2018-Feb-16 09:30N 40°35' W 074°02'713.6
2018-Feb-16 09:00N 40°30' W 073°56'4 9.0
2018-Feb-16 08:30N 40°28' W 073°51'3 6.9
2018-Feb-16 08:00N 40°26' W 073°47'3 5.2
2018-Feb-16 07:30N 40°24' W 073°47'4 8.2
2018-Feb-16 07:00N 40°20' W 073°47'6 4.4
2018-Feb-16 05:38N 40°14' W 073°46'  
Track history (hours):
 
Tides and Currents Weather Stations Pressure Air Temp Water Temp Dewpoint Dewpoint Depression Visibility Wind Speed Wind Dir Waves Ship Positions

Maersk Memphis

Owner: MAERSK LINE, LIMITED, NORFOLK, VA. More information available from US FCC via Universal Licensing System and Coast Guard Vessel Documentation Center.

Last reported at 2018-Feb-24 23:30 UTC. Time now 2018-Feb-24 23:41 UTC.
Position N 37°37' W 027°51'.

Length 299 m; draft 13 m.

Type: Cargo ship. MMSI: 366337000.

Date/timePositionNaut miles runAvg speedWind from/ knotsBaromVisibWave heightAir tempDewpointWater temp
2018-Feb-24 23:30N 37°37' W 027°51'1121.2
2018-Feb-24 23:00N 37°37' W 028°04'1021.0
2018-Feb-24 22:30N 37°38' W 028°17'1020.9
2018-Feb-24 22:00N 37°38' W 028°31'1020.8
2018-Feb-24 21:30N 37°39' W 028°44'1121.2
2018-Feb-24 21:00N 37°39' W 028°57'1020.8
2018-Feb-24 20:30N 37°40' W 029°10'1121.3
2018-Feb-24 20:00N 37°40' W 029°24'1121.1
2018-Feb-24 19:30N 37°41' W 029°37'1121.4
2018-Feb-24 19:00N 37°42' W 029°50'1121.1
2018-Feb-24 18:31N 37°42' W 030°04'1121.0
2018-Feb-24 18:00N 37°43' W 030°17'12420.6
2018-Feb-24 12:00N 37°48' W 032°54'   320 / 401000.210.8 12.0 7.918.0
2018-Feb-20 13:51N 36°49' W 075°46'4 9.2
2018-Feb-20 13:22N 36°51' W 075°50'3 9.2
2018-Feb-20 13:00N 36°54' W 075°54'5 9.2
2018-Feb-20 12:28N 36°56' W 075°59'510.5
2018-Feb-20 12:00N 36°58' W 076°04'712.8
2018-Feb-20 11:29N 36°60' W 076°12'611.6
2018-Feb-20 10:57N 36°58' W 076°20'4 8.0
2018-Feb-20 10:30N 36°55' W 076°20'2 4.5
2018-Feb-20 10:00N 36°53' W 076°21'0 0.6
2018-Feb-20 09:30N 36°52' W 076°21'0 0.0
2018-Feb-20 08:58N 36°52' W 076°21'0 0.0
2018-Feb-20 08:28N 36°52' W 076°21'0 0.0
2018-Feb-20 07:58N 36°52' W 076°21'0 0.0
2018-Feb-20 07:28N 36°52' W 076°21'0 0.0
2018-Feb-20 06:58N 36°52' W 076°21'0 0.0
2018-Feb-20 06:28N 36°52' W 076°21'0 0.0
2018-Feb-20 05:58N 36°52' W 076°21'0 0.0
2018-Feb-20 05:28N 36°52' W 076°21'0 0.0
2018-Feb-20 04:58N 36°52' W 076°21'0 0.0
2018-Feb-20 04:28N 36°52' W 076°21'0 0.0
2018-Feb-20 03:58N 36°52' W 076°21'0 0.0
2018-Feb-20 03:28N 36°52' W 076°21'0 0.0
2018-Feb-20 02:58N 36°52' W 076°21'0 0.0
2018-Feb-20 02:25N 36°52' W 076°21'0 0.0
2018-Feb-20 01:58N 36°52' W 076°21'0 0.0
2018-Feb-20 01:28N 36°52' W 076°21'0 0.0
2018-Feb-20 00:58N 36°52' W 076°21'0 0.0
2018-Feb-20 00:28N 36°52' W 076°21'0 0.0
2018-Feb-19 23:55N 36°52' W 076°21'0 0.0
2018-Feb-19 23:28N 36°52' W 076°21'0 0.0
2018-Feb-19 22:58N 36°52' W 076°21'0 0.0
2018-Feb-19 22:28N 36°52' W 076°21'0 0.0
2018-Feb-19 21:58N 36°52' W 076°21'0 0.0
2018-Feb-19 21:28N 36°52' W 076°21'0 0.0
2018-Feb-19 20:58N 36°52' W 076°21'0 0.0
2018-Feb-19 20:28N 36°52' W 076°21'0 0.0
2018-Feb-19 19:58N 36°52' W 076°21'0 0.0
2018-Feb-19 19:28N 36°52' W 076°21'0 0.0
2018-Feb-19 18:58N 36°52' W 076°21'0 0.0
2018-Feb-19 18:28N 36°52' W 076°21'0 0.0
2018-Feb-19 17:58N 36°52' W 076°21'0 0.0
2018-Feb-19 17:28N 36°52' W 076°21'0 0.0
2018-Feb-19 16:58N 36°52' W 076°21'0 0.5
2018-Feb-19 16:31N 36°53' W 076°21'2 4.6
2018-Feb-19 16:01N 36°55' W 076°20'5 8.9
2018-Feb-19 15:30N 36°59' W 076°19'713.4
2018-Feb-19 15:00N 36°59' W 076°11'714.6
2018-Feb-19 14:30N 36°57' W 076°02'5 9.7
2018-Feb-19 14:00N 36°56' W 075°56'3 6.4
2018-Feb-19 13:30N 36°54' W 075°54'2 4.9
2018-Feb-19 13:00N 36°52' W 075°51'3 5.5
2018-Feb-19 12:30N 36°50' W 075°49'2 0.1
2018-Feb-18 19:37N 36°48' W 075°49'0 0.0
2018-Feb-18 17:58N 36°48' W 075°49'0 0.2
2018-Feb-18 17:25N 36°48' W 075°49'3 6.3
2018-Feb-18 17:00N 36°47' W 075°46'5 9.3
2018-Feb-18 16:30N 36°47' W 075°40'19613.7
2018-Feb-18 02:13N 39°42' W 073°49'3512.3
2018-Feb-17 23:22N 40°17' W 073°49'3 9.3
2018-Feb-17 23:00N 40°21' W 073°49'5 9.1
2018-Feb-17 22:28N 40°25' W 073°50'4 8.8
2018-Feb-17 22:00N 40°29' W 073°53'510.8
2018-Feb-17 21:30N 40°31' W 073°60'714.5
2018-Feb-17 21:00N 40°38' W 074°03'3 6.2
2018-Feb-17 20:31N 40°39' W 074°07'2 3.0
2018-Feb-17 20:00N 40°40' W 074°09'0 0.2
2018-Feb-17 19:28N 40°40' W 074°09'0 0.0
2018-Feb-17 18:58N 40°40' W 074°09'0 0.0
2018-Feb-17 18:28N 40°40' W 074°09'0 0.0
2018-Feb-17 17:58N 40°40' W 074°09'0 0.0
2018-Feb-17 17:28N 40°40' W 074°09'0 0.0
2018-Feb-17 16:58N 40°40' W 074°09'0 0.0
2018-Feb-17 16:28N 40°40' W 074°09'0 0.0
2018-Feb-17 15:58N 40°40' W 074°09'0 0.0
2018-Feb-17 15:28N 40°40' W 074°09'0 0.0
2018-Feb-17 14:58N 40°40' W 074°09'0 0.0
2018-Feb-17 14:28N 40°40' W 074°09'0 0.0
2018-Feb-17 13:58N 40°40' W 074°09'0 0.0
2018-Feb-17 13:25N 40°40' W 074°09'0 0.0
2018-Feb-17 12:58N 40°40' W 074°09'0 0.0
2018-Feb-17 12:28N 40°40' W 074°09'0 0.0
2018-Feb-17 11:58N 40°40' W 074°09'0 0.0
2018-Feb-17 11:28N 40°40' W 074°09'0 0.0
2018-Feb-17 10:58N 40°40' W 074°09'0 0.0
2018-Feb-17 10:28N 40°40' W 074°09'0 0.0
2018-Feb-17 09:58N 40°40' W 074°09'0 0.0
2018-Feb-17 09:28N 40°40' W 074°09'0 0.0
2018-Feb-17 08:58N 40°40' W 074°09'0 0.0
2018-Feb-17 08:28N 40°40' W 074°09'0 0.0
2018-Feb-17 07:58N 40°40' W 074°09'0 0.0
2018-Feb-17 07:28N 40°40' W 074°09'0 0.0
2018-Feb-17 06:58N 40°40' W 074°09'0 0.0
2018-Feb-17 06:28N 40°40' W 074°09'0 0.0
2018-Feb-17 05:58N 40°40' W 074°09'0 0.0
2018-Feb-17 05:28N 40°40' W 074°09'0 0.0
2018-Feb-17 04:58N 40°40' W 074°09'0 0.0
2018-Feb-17 04:28N 40°40' W 074°09'0 0.0
2018-Feb-17 03:58N 40°40' W 074°09'0 0.0
2018-Feb-17 03:28N 40°40' W 074°09'0 0.0
2018-Feb-17 02:58N 40°40' W 074°09'0 0.0
2018-Feb-17 02:28N 40°40' W 074°09'0 0.0
2018-Feb-17 01:58N 40°40' W 074°09'0 0.0
2018-Feb-17 01:28N 40°40' W 074°09'0 0.0
2018-Feb-17 00:58N 40°40' W 074°09'0 0.0
2018-Feb-17 00:28N 40°40' W 074°09'0 0.0
2018-Feb-16 23:58N 40°40' W 074°09'0 0.0
2018-Feb-16 23:28N 40°40' W 074°09'0 0.0
2018-Feb-16 22:58N 40°40' W 074°09'0 0.0
2018-Feb-16 22:28N 40°40' W 074°09'0 0.0
2018-Feb-16 21:58N 40°40' W 074°09'0 0.0
2018-Feb-16 21:28N 40°40' W 074°09'0 0.0
2018-Feb-16 20:58N 40°40' W 074°09'0 0.0
2018-Feb-16 20:28N 40°40' W 074°09'0 0.0
2018-Feb-16 19:58N 40°40' W 074°09'0 0.0
2018-Feb-16 19:28N 40°40' W 074°09'0 0.0
2018-Feb-16 18:58N 40°40' W 074°09'0 0.0
2018-Feb-16 18:28N 40°40' W 074°09'0 0.0
2018-Feb-16 17:58N 40°40' W 074°09'0 0.0
2018-Feb-16 17:28N 40°40' W 074°09'0 0.0
2018-Feb-16 16:58N 40°40' W 074°09'0 0.0
2018-Feb-16 16:25N 40°40' W 074°09'0 0.0
2018-Feb-16 15:58N 40°40' W 074°09'0 0.0
2018-Feb-16 15:28N 40°40' W 074°09'0 0.0
2018-Feb-16 14:58N 40°40' W 074°09'0 0.0
2018-Feb-16 14:28N 40°40' W 074°09'0 0.0
2018-Feb-16 13:58N 40°40' W 074°09'0 0.0
2018-Feb-16 13:28N 40°40' W 074°09'0 0.0
2018-Feb-16 12:58N 40°40' W 074°09'0 0.0
2018-Feb-16 12:28N 40°40' W 074°09'0 0.0
2018-Feb-16 11:58N 40°40' W 074°09'0 0.0
2018-Feb-16 11:28N 40°40' W 074°09'0 0.0
2018-Feb-16 11:01N 40°40' W 074°09'1 2.2
2018-Feb-16 10:30N 40°39' W 074°08'3 6.2
2018-Feb-16 10:00N 40°39' W 074°04'4 8.5
2018-Feb-16 09:30N 40°35' W 074°02'713.6
2018-Feb-16 09:00N 40°30' W 073°56'4 9.0
2018-Feb-16 08:30N 40°28' W 073°51'3 6.9
2018-Feb-16 08:00N 40°26' W 073°47'3 5.2
2018-Feb-16 07:30N 40°24' W 073°47'4 8.2
2018-Feb-16 07:00N 40°20' W 073°47'6 4.4
2018-Feb-16 05:38N 40°14' W 073°46'  

Dump ship's entire track history